Time;durP1;ratioP1;P1;durP2;ratioP2;P2;SDS_P1;SDS_P2;PMS_P1;PMS_P2;Temp;Humidity;BMP_temperature;BMP_pressure;BME280_temperature;BME280_humidity;BME280_pressure;Samples;Min_cycle;Max_cycle;Signal;HPM_P1;HPM_P2
2023/02/19 00:00:20;;;;;;;27.37;11.63;;;;;;;2.22;100.00;100583.81;7393246;19;20400;-42
2023/02/19 00:02:51;;;;;;;21.20;11.07;;;;;;;2.20;100.00;100587.91;7388068;19;20458;-42
2023/02/19 00:05:21;;;;;;;23.03;12.27;;;;;;;2.21;100.00;100588.78;7392238;19;20934;-43
2023/02/19 00:07:50;;;;;;;22.50;12.20;;;;;;;2.18;100.00;100592.00;7389403;19;20431;-45
2023/02/19 00:10:22;;;;;;;26.70;13.20;;;;;;;2.14;100.00;100598.53;7394108;19;20414;-43
2023/02/19 00:12:52;;;;;;;21.70;11.97;;;;;;;2.15;100.00;100595.19;7388834;19;20431;-43
2023/02/19 00:15:22;;;;;;;20.20;11.27;;;;;;;2.23;100.00;100587.22;7389009;19;20411;-42
2023/02/19 00:17:52;;;;;;;24.80;12.20;;;;;;;2.14;100.00;100592.53;7390114;19;20423;-41
2023/02/19 00:20:22;;;;;;;19.30;11.50;;;;;;;2.16;100.00;100591.88;7393531;19;20392;-43
2023/02/19 00:22:52;;;;;;;24.37;11.77;;;;;;;2.22;100.00;100586.38;7386070;19;20439;-43
2023/02/19 00:25:24;;;;;;;22.70;11.60;;;;;;;2.24;100.00;100583.91;7393017;19;20404;-41
2023/02/19 00:27:54;;;;;;;27.53;13.10;;;;;;;2.18;100.00;100583.47;7388547;19;20993;-43
2023/02/19 00:30:23;;;;;;;23.17;11.23;;;;;;;2.18;100.00;100592.00;7392314;19;20404;-43
2023/02/19 00:32:54;;;;;;;24.70;12.57;;;;;;;2.14;100.00;100587.44;7390565;19;20498;-43
2023/02/19 00:35:23;;;;;;;26.00;11.63;;;;;;;2.13;100.00;100585.69;7390507;19;20435;-43
2023/02/19 00:37:53;;;;;;;23.20;12.27;;;;;;;2.14;100.00;100580.72;7389005;19;20450;-43
2023/02/19 00:40:25;;;;;;;24.43;11.40;;;;;;;2.15;100.00;100590.13;7399129;19;20414;-44
2023/02/19 00:42:55;;;;;;;24.63;12.27;;;;;;;2.13;100.00;100600.94;7396424;19;20453;-42
2023/02/19 00:45:24;;;;;;;30.37;12.27;;;;;;;2.20;100.00;100597.22;7399297;19;20399;-43
2023/02/19 00:47:54;;;;;;;33.03;12.80;;;;;;;2.26;100.00;100595.97;7396690;19;20443;-42
2023/02/19 00:50:24;;;;;;;27.27;12.40;;;;;;;2.27;100.00;100600.28;7399575;19;20395;-42
2023/02/19 00:52:53;;;;;;;26.43;12.07;;;;;;;2.24;100.00;100610.25;7393523;19;20439;-45
2023/02/19 00:55:25;;;;;;;26.70;12.67;;;;;;;2.28;100.00;100598.66;7398569;19;20419;-43
2023/02/19 00:57:57;;;;;;;24.80;11.83;;;;;;;2.27;100.00;100607.94;7383174;19;20431;-43
2023/02/19 01:00:26;;;;;;;22.50;11.47;;;;;;;2.33;100.00;100610.06;7399869;19;20395;-43
2023/02/19 01:02:56;;;;;;;24.40;12.17;;;;;;;2.37;100.00;100608.63;7392579;19;20454;-41
2023/02/19 01:05:25;;;;;;;26.83;12.57;;;;;;;2.25;100.00;100616.25;7399365;19;20406;-43
2023/02/19 01:07:55;;;;;;;25.83;12.80;;;;;;;2.28;100.00;100617.38;7395585;19;20438;-43
2023/02/19 01:10:27;;;;;;;33.90;13.70;;;;;;;2.29;100.00;100619.13;7400173;19;20407;-44
2023/02/19 01:12:56;;;;;;;27.57;12.23;;;;;;;2.28;100.00;100624.09;7392902;19;20438;-43
2023/02/19 01:15:26;;;;;;;30.50;15.67;;;;;;;2.27;100.00;100619.78;7399208;19;20404;-43
2023/02/19 01:17:55;;;;;;;27.63;12.97;;;;;;;2.34;100.00;100632.19;7395262;19;20418;-43
2023/02/19 01:20:25;;;;;;;24.97;12.03;;;;;;;2.25;100.00;100627.31;7398996;19;20434;-43
2023/02/19 01:22:54;;;;;;;28.73;12.30;;;;;;;2.19;100.00;100614.13;7393483;19;20435;-43
2023/02/19 01:25:27;;;;;;;25.57;12.67;;;;;;;2.26;100.00;100623.97;7398076;19;20399;-43
2023/02/19 01:27:56;;;;;;;23.33;10.93;;;;;;;2.25;100.00;100627.31;7389803;19;20451;-43
2023/02/19 01:30:25;;;;;;;23.43;11.30;;;;;;;2.25;100.00;100624.75;7398153;19;20410;-43
2023/02/19 01:32:55;;;;;;;21.17;11.23;;;;;;;2.27;100.00;100633.38;7391912;19;20868;-43
2023/02/19 01:35:24;;;;;;;27.53;10.50;;;;;;;2.27;100.00;100615.56;7396811;19;20795;-43
2023/02/19 01:37:54;;;;;;;24.17;10.03;;;;;;;2.32;100.00;100621.03;7392275;19;20428;-44
2023/02/19 01:40:23;;;;;;;22.90;9.47;;;;;;;2.26;100.00;100618.91;7397862;19;20391;-43
2023/02/19 01:42:55;;;;;;;21.13;9.20;;;;;;;2.22;100.00;100614.38;7392542;19;20462;-43
2023/02/19 01:45:30;;;;;;;23.60;9.40;;;;;;;2.21;100.00;100614.25;7398276;19;20763;-43
2023/02/19 01:48:11;;;;;;;17.80;9.00;;;;;;;2.27;100.00;100610.47;7392634;19;20493;-43
2023/02/19 01:50:43;;;;;;;22.97;9.00;;;;;;;2.27;100.00;100615.56;7397446;19;20400;-44
2023/02/19 01:53:14;;;;;;;21.07;9.53;;;;;;;2.18;100.00;100614.91;7391099;19;20463;-43
2023/02/19 01:55:44;;;;;;;17.23;6.50;;;;;;;2.15;100.00;100617.22;7396591;19;20435;-44
2023/02/19 01:58:16;;;;;;;15.60;8.10;;;;;;;2.16;100.00;100616.47;7391767;19;20441;-43
2023/02/19 02:00:46;;;;;;;19.80;5.70;;;;;;;2.10;100.00;100623.66;7398424;19;20391;-44
2023/02/19 02:03:15;;;;;;;12.90;6.10;;;;;;;2.11;100.00;100616.09;7392427;19;20542;-43
2023/02/19 02:05:54;;;;;;;18.43;5.80;;;;;;;2.06;100.00;100619.09;7390152;19;20453;-45
2023/02/19 02:11:06;;;;;;;14.53;5.53;;;;;;;2.09;100.00;100619.31;7398780;19;20762;-43
2023/02/19 02:13:39;;;;;;;17.80;6.10;;;;;;;2.07;100.00;100626.84;7390232;19;20444;-42
2023/02/19 02:16:19;;;;;;;12.40;5.40;;;;;;;2.06;100.00;100620.00;7395535;19;20416;-42
2023/02/19 02:18:57;;;;;;;15.20;5.27;;;;;;;2.08;100.00;100630.28;7392777;19;20415;-43
2023/02/19 02:21:51;;;;;;;10.70;4.43;;;;;;;2.01;100.00;100627.28;7396592;19;20414;-41
2023/02/19 02:24:35;;;;;;;7.47;3.80;;;;;;;1.98;100.00;100632.16;7390551;19;20439;-43
2023/02/19 02:27:18;;;;;;;9.37;3.53;;;;;;;2.02;100.00;100626.50;7397661;19;20411;-41
2023/02/19 02:30:09;;;;;;;7.67;3.90;;;;;;;1.99;100.00;100641.56;7391898;19;20974;-43
2023/02/19 02:32:42;;;;;;;9.47;4.20;;;;;;;2.10;100.00;100642.34;7394719;19;20435;-43
2023/02/19 02:35:18;;;;;;;9.03;3.83;;;;;;;2.04;100.00;100641.88;7392185;19;20447;-43
2023/02/19 02:37:48;;;;;;;15.30;4.13;;;;;;;2.02;100.00;100648.53;7397237;19;20948;-42
2023/02/19 02:40:19;;;;;;;10.47;4.70;;;;;;;1.95;100.00;100648.84;7393324;19;20431;-44
2023/02/19 02:42:49;;;;;;;11.87;4.60;;;;;;;1.94;100.00;100642.84;7394500;19;20787;-44
2023/02/19 02:45:36;;;;;;;11.83;3.97;;;;;;;2.00;100.00;100650.94;7393662;19;20455;-44
2023/02/19 02:48:12;;;;;;;7.93;3.73;;;;;;;1.93;100.00;100651.28;7396638;19;20402;-43
2023/02/19 02:50:43;;;;;;;16.83;4.17;;;;;;;1.87;100.00;100650.81;7397252;19;20483;-47
2023/02/19 02:55:59;;;;;;;8.83;3.57;;;;;;;1.94;100.00;100650.50;7394888;19;20404;-42
2023/02/19 02:58:29;;;;;;;30.73;13.37;;;;;;;2.00;100.00;100661.13;7393419;19;20410;-43
2023/02/19 03:03:49;;;;;;;12.40;4.10;;;;;;;1.95;100.00;100670.06;7392589;19;20773;-43
2023/02/19 03:06:21;;;;;;;13.67;5.10;;;;;;;1.94;100.00;100670.84;7394528;19;20416;-43
2023/02/19 03:08:54;;;;;;;21.83;7.60;;;;;;;1.95;100.00;100669.22;7391392;19;20399;-45
2023/02/19 03:19:44;;;;;;;9.40;4.97;;;;;;;2.32;100.00;100678.69;7390324;19;20466;-43
2023/02/19 03:22:18;;;;;;;12.87;4.53;;;;;;;2.46;100.00;100683.13;7395049;19;20463;-44
2023/02/19 03:27:34;;;;;;;12.17;4.80;;;;;;;2.45;100.00;100691.53;7396124;19;20496;-44
2023/02/19 03:30:08;;;;;;;9.30;3.60;;;;;;;2.62;100.00;100687.69;7391705;19;20439;-43
2023/02/19 03:32:42;;;;;;;10.83;4.10;;;;;;;2.57;100.00;100694.13;7393882;19;20438;-45
2023/02/19 03:35:13;;;;;;;13.40;4.27;;;;;;;2.53;100.00;100693.00;7389355;19;20791;-42
2023/02/19 03:37:45;;;;;;;14.07;3.47;;;;;;;2.80;100.00;100698.34;7393657;19;20411;-43
2023/02/19 03:40:15;;;;;;;14.00;3.80;;;;;;;2.81;100.00;100702.66;7389671;19;20447;-44
2023/02/19 03:42:48;;;;;;;11.03;3.90;;;;;;;2.76;100.00;100706.53;7393337;19;20438;-43
2023/02/19 03:45:27;;;;;;;6.77;3.30;;;;;;;2.60;100.00;100712.16;7391091;19;20457;-43
2023/02/19 03:48:05;;;;;;;9.63;3.10;;;;;;;2.25;100.00;100721.53;7394721;19;20722;-44
2023/02/19 03:50:38;;;;;;;18.60;4.43;;;;;;;2.41;100.00;100725.22;7393347;19;20454;-41
2023/02/19 03:53:12;;;;;;;8.40;3.83;;;;;;;2.34;100.00;100725.50;7389132;19;20439;-43
2023/02/19 03:55:46;;;;;;;12.63;3.93;;;;;;;2.75;100.00;100730.25;7391967;19;20421;-45
2023/02/19 03:58:19;;;;;;;11.00;3.30;;;;;;;2.68;100.00;100738.22;7391714;19;20414;-43
2023/02/19 04:00:52;;;;;;;10.23;3.97;;;;;;;2.81;100.00;100742.53;7393608;19;20399;-43
2023/02/19 04:03:28;;;;;;;11.30;3.93;;;;;;;2.40;100.00;100753.97;7387143;19;20459;-43
2023/02/19 04:06:02;;;;;;;8.37;3.27;;;;;;;2.17;100.00;100765.91;7393815;19;20399;-45
2023/02/19 04:08:33;;;;;;;7.87;3.30;;;;;;;1.92;100.00;100783.47;7387610;19;20402;-42
2023/02/19 04:11:03;;;;;;;14.20;3.80;;;;;;;1.82;100.00;100792.06;7394049;19;20404;-45
2023/02/19 04:13:36;;;;;;;15.17;5.67;;;;;;;2.16;100.00;100809.94;7386689;19;20411;-43
2023/02/19 04:16:09;;;;;;;9.53;3.60;;;;;;;2.26;100.00;100799.69;7401669;19;20392;-41
2023/02/19 04:18:43;;;;;;;11.00;4.70;;;;;;;2.23;100.00;100802.00;7398900;19;20759;-45
2023/02/19 04:21:12;;;;;;;10.97;4.67;;;;;;;2.20;100.00;100811.94;7400864;19;20845;-43
2023/02/19 04:23:44;;;;;;;9.63;4.03;;;;;;;1.80;100.00;100831.78;7393573;19;20414;-43
2023/02/19 04:26:15;;;;;;;7.67;3.70;;;;;;;1.75;100.00;100832.28;7401037;19;20743;-43
2023/02/19 04:28:45;;;;;;;7.80;3.60;;;;;;;1.71;100.00;100855.75;7395965;19;20407;-44
2023/02/19 04:31:14;;;;;;;7.47;3.50;;;;;;;1.63;100.00;100873.69;7400699;19;20396;-43
2023/02/19 04:33:46;;;;;;;12.23;4.10;;;;;;;1.62;100.00;100893.16;7396574;19;20791;-45
2023/02/19 04:36:16;;;;;;;10.97;4.07;;;;;;;1.48;100.00;100903.09;7400763;19;20422;-45
2023/02/19 04:38:45;;;;;;;12.10;4.23;;;;;;;1.36;100.00;100922.44;7395897;19;20415;-42
2023/02/19 04:41:15;;;;;;;11.80;4.00;;;;;;;1.37;100.00;100934.41;7400094;19;20407;-44
2023/02/19 04:43:44;;;;;;;7.73;3.90;;;;;;;1.33;100.00;100947.66;7394574;19;20406;-41
2023/02/19 04:46:14;;;;;;;8.43;3.40;;;;;;;1.33;100.00;100968.84;7400257;19;20938;-43
2023/02/19 04:48:44;;;;;;;11.87;3.57;;;;;;;1.40;100.00;100970.25;7395468;19;20402;-44
2023/02/19 04:51:18;;;;;;;11.00;3.03;;;;;;;1.31;100.00;100989.84;7399558;19;20403;-43
2023/02/19 04:53:48;;;;;;;8.03;3.60;;;;;;;1.53;100.00;100999.25;7394923;19;20429;-42
2023/02/19 04:56:18;;;;;;;9.97;3.80;;;;;;;1.52;100.00;101017.78;7397802;19;20530;-43
2023/02/19 04:58:48;;;;;;;13.70;3.90;;;;;;;1.50;100.00;101024.41;7390127;19;20419;-42
2023/02/19 05:01:17;;;;;;;11.23;3.90;;;;;;;1.79;100.00;101043.72;7397349;19;21295;-43
2023/02/19 05:03:47;;;;;;;11.67;3.90;;;;;;;1.56;100.00;101060.53;7394560;19;20926;-41
2023/02/19 05:06:19;;;;;;;13.73;3.90;;;;;;;1.32;100.00;101072.97;7399512;19;20383;-43
2023/02/19 05:08:48;;;;;;;12.37;3.73;;;;;;;1.15;100.00;101095.34;7377016;19;20418;-43
2023/02/19 05:11:18;;;;;;;7.87;3.37;;;;;;;1.10;100.00;101116.91;7397538;19;20410;-43
2023/02/19 05:13:47;;;;;;;15.67;3.10;;;;;;;1.09;100.00;101125.31;7394316;19;20754;-43
2023/02/19 05:16:20;;;;;;;9.27;3.13;;;;;;;1.01;100.00;101144.06;7398654;19;20383;-44
2023/02/19 05:18:49;;;;;;;8.83;3.00;;;;;;;1.04;100.00;101152.84;7392094;19;20415;-43
2023/02/19 05:21:21;;;;;;;6.00;2.10;;;;;;;1.08;100.00;101159.13;7396937;19;20989;-45
2023/02/19 05:23:51;;;;;;;7.03;2.60;;;;;;;1.34;100.00;101155.38;7393585;19;20402;-42
2023/02/19 05:26:22;;;;;;;14.53;2.57;;;;;;;1.71;100.00;101153.41;7397237;19;20424;-42
2023/02/19 05:28:53;;;;;;;9.40;3.60;;;;;;;1.87;100.00;101172.50;7394372;19;20402;-41
2023/02/19 05:31:23;;;;;;;15.60;3.60;;;;;;;1.64;100.00;101168.88;7396618;19;20772;-43
2023/02/19 05:33:53;;;;;;;8.43;2.57;;;;;;;1.37;100.00;101175.09;7393877;19;20419;-44
2023/02/19 05:36:25;;;;;;;8.10;2.73;;;;;;;1.18;100.00;101184.56;7397526;19;20438;-42
2023/02/19 05:38:55;;;;;;;11.10;3.80;;;;;;;0.94;100.00;101207.06;7391868;19;20446;-43
2023/02/19 05:41:26;;;;;;;6.60;2.90;;;;;;;1.06;100.00;101217.44;7396532;19;20404;-44
2023/02/19 05:43:57;;;;;;;6.90;3.77;;;;;;;1.25;100.00;101213.03;7393263;19;20771;-43
2023/02/19 05:46:28;;;;;;;6.20;2.90;;;;;;;1.16;100.00;101223.31;7396906;19;20381;-42
2023/02/19 05:48:59;;;;;;;11.70;3.27;;;;;;;1.11;100.00;101225.44;7392212;19;20433;-44
2023/02/19 05:51:31;;;;;;;8.57;3.60;;;;;;;1.05;100.00;101235.09;7396429;19;20404;-43
2023/02/19 05:54:01;;;;;;;9.50;3.80;;;;;;;1.00;100.00;101237.22;7393657;19;20420;-43
2023/02/19 05:56:35;;;;;;;6.50;2.70;;;;;;;1.16;100.00;101234.38;7397097;19;20419;-45
2023/02/19 05:59:06;;;;;;;11.10;3.30;;;;;;;1.12;100.00;101237.41;7392443;19;20508;-43
2023/02/19 06:01:37;;;;;;;11.10;3.60;;;;;;;1.10;100.00;101238.03;7396690;19;20386;-43
2023/02/19 06:04:07;;;;;;;10.77;3.63;;;;;;;1.00;100.00;101242.31;7392252;19;20439;-43
2023/02/19 06:06:39;;;;;;;12.80;4.07;;;;;;;1.11;100.00;101253.41;7398196;19;20402;-43
2023/02/19 06:09:09;;;;;;;8.43;3.60;;;;;;;1.10;100.00;101259.25;7392111;19;20398;-42
2023/02/19 06:11:42;;;;;;;6.43;3.20;;;;;;;1.20;100.00;101261.88;7396383;19;20407;-44
2023/02/19 06:14:13;;;;;;;9.90;3.53;;;;;;;1.10;100.00;101264.34;7394474;19;20423;-43
2023/02/19 06:16:43;;;;;;;11.43;3.83;;;;;;;1.24;100.00;101272.28;7397519;19;20410;-43
2023/02/19 06:19:12;;;;;;;12.80;3.60;;;;;;;1.18;100.00;101278.63;7391155;19;21103;-42
2023/02/19 06:21:45;;;;;;;15.77;4.77;;;;;;;0.91;100.00;101284.69;7395358;19;20452;-43
2023/02/19 06:24:14;;;;;;;15.23;4.53;;;;;;;0.90;100.00;101286.34;7392811;19;20490;-43
2023/02/19 06:26:45;;;;;;;13.60;4.13;;;;;;;0.70;100.00;101292.19;7396755;19;20406;-43
2023/02/19 06:29:14;;;;;;;7.37;3.93;;;;;;;0.84;100.00;101303.59;7393168;19;21008;-43
2023/02/19 06:31:44;;;;;;;17.50;4.73;;;;;;;0.89;100.00;101309.97;7395686;19;20450;-43
2023/02/19 06:34:14;;;;;;;9.10;3.93;;;;;;;1.00;100.00;101313.47;7392380;19;20435;-43
2023/02/19 06:36:46;;;;;;;10.73;4.40;;;;;;;0.79;100.00;101323.50;7394270;19;20443;-41
2023/02/19 06:39:15;;;;;;;6.97;3.60;;;;;;;1.24;100.00;101320.59;7391310;19;20424;-43
2023/02/19 06:41:45;;;;;;;11.03;4.10;;;;;;;1.13;100.00;101329.81;7395646;19;20440;-43
2023/02/19 06:44:14;;;;;;;16.50;4.53;;;;;;;1.21;100.00;101328.84;7391312;19;20418;-43
2023/02/19 06:46:44;;;;;;;13.20;3.97;;;;;;;1.34;100.00;101338.47;7395502;19;20395;-44
2023/02/19 06:49:14;;;;;;;9.60;4.10;;;;;;;1.06;100.00;101344.53;7391958;19;20445;-42
2023/02/19 06:51:46;;;;;;;11.63;4.37;;;;;;;1.00;100.00;101350.69;7394975;19;20778;-44
2023/02/19 06:54:15;;;;;;;10.70;3.90;;;;;;;0.86;100.00;101355.44;7393286;19;21099;-43
2023/02/19 06:56:45;;;;;;;11.60;3.67;;;;;;;0.67;100.00;101363.91;7394918;19;20405;-44
2023/02/19 06:59:17;;;;;;;15.60;4.13;;;;;;;0.59;100.00;101375.03;7391415;19;20438;-44
2023/02/19 07:01:47;;;;;;;7.93;3.50;;;;;;;0.60;100.00;101376.81;7395163;19;20423;-43
2023/02/19 07:04:19;;;;;;;9.23;4.10;;;;;;;0.55;100.00;101383.09;7391906;19;20818;-43
2023/02/19 07:06:51;;;;;;;10.47;4.00;;;;;;;0.73;100.00;101385.56;7395557;19;20422;-43
2023/02/19 07:09:22;;;;;;;12.00;3.67;;;;;;;1.26;100.00;101377.53;7382051;19;20453;-43
2023/02/19 07:11:51;;;;;;;15.53;4.13;;;;;;;1.29;100.00;101382.91;7395376;19;20509;-43
2023/02/19 07:14:21;;;;;;;9.80;3.50;;;;;;;1.05;100.00;101390.13;7390819;19;20433;-42
2023/02/19 07:16:50;;;;;;;10.23;3.27;;;;;;;0.87;100.00;101390.25;7396232;19;20435;-43
2023/02/19 07:19:20;;;;;;;10.23;3.80;;;;;;;1.01;100.00;101405.84;7387354;19;20458;-44
2023/02/19 07:21:52;;;;;;;10.07;3.50;;;;;;;0.91;100.00;101407.56;7394824;19;20459;-43
2023/02/19 07:24:21;;;;;;;7.93;3.47;;;;;;;0.98;100.00;101431.00;7389889;19;20419;-43
2023/02/19 07:26:51;;;;;;;12.60;3.80;;;;;;;0.99;100.00;101422.59;7395962;19;20414;-43
2023/02/19 07:29:20;;;;;;;8.47;3.50;;;;;;;0.93;100.00;101434.00;7390052;19;20431;-41
2023/02/19 07:31:50;;;;;;;15.13;3.43;;;;;;;0.82;100.00;101439.72;7394434;19;20974;-43
2023/02/19 07:34:19;;;;;;;10.23;3.70;;;;;;;0.86;100.00;101443.47;7389244;19;20489;-43
2023/02/19 07:36:51;;;;;;;7.27;3.50;;;;;;;0.96;100.00;101452.84;7394971;19;20399;-43
2023/02/19 07:39:21;;;;;;;10.00;3.47;;;;;;;0.96;100.00;101458.81;7381241;19;20439;-43
2023/02/19 07:41:50;;;;;;;10.87;3.30;;;;;;;0.94;100.00;101461.19;7393748;19;20438;-43
2023/02/19 07:44:20;;;;;;;11.87;3.50;;;;;;;0.88;100.00;101462.28;7389053;19;20435;-40
2023/02/19 07:46:49;;;;;;;9.87;3.23;;;;;;;0.93;100.00;101464.50;7394595;19;20408;-43
2023/02/19 07:49:19;;;;;;;10.83;2.90;;;;;;;0.91;100.00;101468.56;7388046;19;20429;-44
2023/02/19 07:51:49;;;;;;;9.53;3.20;;;;;;;0.92;100.00;101472.00;7393416;19;20407;-43
2023/02/19 07:54:21;;;;;;;7.23;2.57;;;;;;;1.10;100.00;101477.88;7388848;19;20473;-43
2023/02/19 07:56:50;;;;;;;6.07;2.97;;;;;;;1.17;100.00;101479.31;7394401;19;20418;-43
2023/02/19 07:59:20;;;;;;;7.87;3.30;;;;;;;1.04;100.00;101478.19;7388805;19;20463;-44
2023/02/19 08:04:32;;;;;;;6.53;3.03;;;;;;;0.84;100.00;101491.63;7386974;19;20435;-43
2023/02/19 08:07:01;;;;;;;9.40;3.57;;;;;;;1.13;100.00;101489.97;7394338;19;20411;-43
2023/02/19 08:09:34;;;;;;;11.97;3.90;;;;;;;1.18;100.00;101492.16;7386552;19;20445;-43
2023/02/19 08:14:46;;;;;;;16.07;3.60;;;;;;;1.18;100.00;101493.84;7389607;19;20426;-43
2023/02/19 08:17:15;;;;;;;11.73;4.37;;;;;;;1.25;100.00;101502.91;7394579;19;20424;-43
2023/02/19 08:19:48;;;;;;;9.57;2.90;;;;;;;1.25;100.00;101488.53;7388862;19;20439;-43
2023/02/19 08:22:17;;;;;;;9.40;3.30;;;;;;;1.23;100.00;101494.25;7390994;19;20425;-44
2023/02/19 08:24:49;;;;;;;10.70;3.93;;;;;;;1.28;100.00;101503.19;7388743;19;20430;-43
2023/02/19 08:27:18;;;;;;;6.47;3.20;;;;;;;1.37;100.00;101503.13;7392757;19;20986;-40
2023/02/19 08:29:48;;;;;;;13.73;3.53;;;;;;;1.41;100.00;101500.09;7389490;19;20820;-44
2023/02/19 08:32:17;;;;;;;7.30;3.37;;;;;;;1.41;100.00;101517.91;7390455;19;20784;-43
2023/02/19 08:34:47;;;;;;;6.47;3.03;;;;;;;1.42;100.00;101512.97;7388472;19;20419;-43
2023/02/19 08:37:16;;;;;;;8.00;3.80;;;;;;;1.53;100.00;101520.69;7393435;19;20426;-43
2023/02/19 08:39:48;;;;;;;15.10;3.47;;;;;;;1.54;100.00;101530.09;7387760;19;20486;-43
2023/02/19 08:42:17;;;;;;;8.97;3.20;;;;;;;1.56;100.00;101536.22;7392346;19;21312;-46
2023/02/19 08:44:47;;;;;;;10.00;3.00;;;;;;;1.66;100.00;101548.09;7388377;19;20466;-43
2023/02/19 08:47:16;;;;;;;7.07;3.00;;;;;;;1.70;100.00;101552.72;7393916;19;20391;-43
2023/02/19 08:49:46;;;;;;;12.47;2.73;;;;;;;1.79;100.00;101567.94;7387592;19;20440;-42
2023/02/19 08:52:15;;;;;;;7.70;3.17;;;;;;;1.85;100.00;101565.94;7391625;19;20418;-43
2023/02/19 08:54:44;;;;;;;5.50;2.57;;;;;;;1.88;100.00;101581.47;7387536;19;20439;-43
2023/02/19 08:57:18;;;;;;;9.63;2.33;;;;;;;1.92;100.00;101578.47;7393003;19;20414;-43
2023/02/19 08:59:47;;;;;;;21.00;4.30;;;;;;;2.00;100.00;101587.66;7388272;19;21310;-43
2023/02/19 09:02:16;;;;;;;8.20;2.37;;;;;;;2.13;100.00;101604.03;7399365;19;20424;-43
2023/02/19 09:04:46;;;;;;;11.00;3.03;;;;;;;2.16;100.00;101612.84;7398281;19;20466;-44
2023/02/19 09:07:15;;;;;;;8.60;2.57;;;;;;;2.23;100.00;101615.94;7400309;19;20406;-43
2023/02/19 09:09:45;;;;;;;8.20;2.23;;;;;;;2.25;100.00;101619.53;7394131;19;20431;-43
2023/02/19 09:12:17;;;;;;;6.70;1.90;;;;;;;2.27;100.00;101641.81;7398350;19;20431;-43
2023/02/19 09:14:47;;;;;;;13.87;2.23;;;;;;;2.31;100.00;101642.09;7392469;19;20429;-44
2023/02/19 09:17:16;;;;;;;11.90;1.80;;;;;;;2.41;100.00;101654.91;7399798;19;20375;-44
2023/02/19 09:19:46;;;;;;;4.27;2.10;;;;;;;2.51;100.00;101665.16;7391614;19;20455;-43
2023/02/19 09:22:18;;;;;;;9.27;1.70;;;;;;;2.58;100.00;101670.78;7396883;19;20474;-43
2023/02/19 09:24:48;;;;;;;7.63;1.90;;;;;;;2.63;100.00;101683.19;7395741;19;20450;-43
2023/02/19 09:27:21;;;;;;;6.47;1.70;;;;;;;2.67;100.00;101686.91;7397810;19;20424;-43
2023/02/19 09:29:51;;;;;;;9.17;1.70;;;;;;;2.71;100.00;101699.16;7395275;19;20462;-44
2023/02/19 09:32:21;;;;;;;6.70;1.00;;;;;;;2.84;100.00;101707.13;7395882;19;20473;-43
2023/02/19 09:34:51;;;;;;;10.13;1.50;;;;;;;3.09;100.00;101708.41;7394419;19;20789;-43
2023/02/19 09:37:21;;;;;;;8.23;1.60;;;;;;;3.14;100.00;101713.88;7398599;19;20674;-41
2023/02/19 09:39:50;;;;;;;8.73;1.67;;;;;;;3.31;100.00;101726.47;7393298;19;20962;-43
2023/02/19 09:42:24;;;;;;;6.10;1.53;;;;;;;3.27;100.00;101744.81;7395866;19;21156;-44
2023/02/19 09:44:56;;;;;;;5.33;1.70;;;;;;;3.40;100.00;101751.88;7395944;19;20447;-43
2023/02/19 09:47:27;;;;;;;6.77;1.43;;;;;;;3.52;100.00;101749.47;7397725;19;20922;-44
2023/02/19 09:49:58;;;;;;;9.90;1.47;;;;;;;3.61;100.00;101773.25;7394153;19;20431;-43
2023/02/19 09:52:32;;;;;;;10.10;1.57;;;;;;;3.74;100.00;101787.09;7395390;19;20466;-43
2023/02/19 09:55:03;;;;;;;9.83;1.77;;;;;;;3.83;100.00;101805.72;7395519;19;20533;-43
2023/02/19 09:57:37;;;;;;;4.87;1.40;;;;;;;3.65;100.00;101841.66;7397118;19;20748;-43
2023/02/19 10:00:08;;;;;;;7.70;1.30;;;;;;;3.70;100.00;101871.81;7390462;19;20451;-41
2023/02/19 10:02:39;;;;;;;6.60;1.07;;;;;;;4.02;100.00;101900.16;7396579;19;20439;-43
2023/02/19 10:05:13;;;;;;;6.60;1.10;;;;;;;4.11;100.00;101917.91;7393818;19;20444;-45
2023/02/19 10:07:45;;;;;;;5.63;1.07;;;;;;;4.09;100.00;101936.44;7397715;19;20415;-43
2023/02/19 10:10:28;;;;;;;5.40;0.63;;;;;;;4.04;100.00;101956.47;7393071;19;20457;-44
2023/02/19 10:13:07;;;;;;;7.50;1.67;;;;;;;4.17;100.00;101977.19;7395189;19;20454;-44
2023/02/19 10:15:39;;;;;;;7.27;1.10;;;;;;;4.13;100.00;101990.50;7396247;19;20443;-43
2023/02/19 10:18:10;;;;;;;9.97;1.47;;;;;;;4.13;100.00;102015.13;7395127;19;20475;-45
2023/02/19 10:20:39;;;;;;;5.37;1.10;;;;;;;4.28;100.00;102029.25;7394755;19;20773;-44
2023/02/19 10:23:11;;;;;;;7.73;1.40;;;;;;;4.27;100.00;102057.22;7392865;19;20446;-43
2023/02/19 10:25:44;;;;;;;4.03;0.60;;;;;;;4.37;100.00;102066.59;7396144;19;20938;-44
2023/02/19 10:28:21;;;;;;;7.70;0.90;;;;;;;4.49;100.00;102082.09;7394863;19;20953;-44
2023/02/19 10:30:53;;;;;;;3.83;0.73;;;;;;;4.62;100.00;102082.44;7397055;19;20406;-44
2023/02/19 10:33:25;;;;;;;4.97;0.87;;;;;;;4.67;100.00;102099.06;7390853;19;20514;-44
2023/02/19 10:35:57;;;;;;;7.70;1.50;;;;;;;4.79;100.00;102088.09;7396825;19;20407;-44
2023/02/19 10:38:29;;;;;;;2.40;0.93;;;;;;;4.73;100.00;102125.16;7391564;19;20510;-41
2023/02/19 10:41:02;;;;;;;6.27;0.70;;;;;;;4.51;100.00;102122.38;7394901;19;20447;-44
2023/02/19 10:43:38;;;;;;;5.23;1.33;;;;;;;4.63;100.00;102127.69;7389679;19;20498;-45
2023/02/19 10:46:09;;;;;;;3.43;0.90;;;;;;;4.78;100.00;102133.25;7397161;19;20418;-44
2023/02/19 10:48:47;;;;;;;7.80;1.10;;;;;;;4.80;100.00;102126.59;7391502;19;20416;-44
2023/02/19 10:51:20;;;;;;;6.27;1.40;;;;;;;4.88;100.00;102127.28;7396380;19;20415;-44
2023/02/19 10:53:52;;;;;;;21.27;5.50;;;;;;;4.96;100.00;102127.94;7390650;19;20415;-43
2023/02/19 10:56:25;;;;;;;6.53;1.87;;;;;;;4.94;100.00;102130.38;7394870;19;20407;-45
2023/02/19 10:59:16;;;;;;;2.80;0.70;;;;;;;4.90;100.00;102130.84;7389973;19;20422;-43
2023/02/19 11:01:56;;;;;;;3.07;1.00;;;;;;;4.81;100.00;102132.59;7393896;19;20435;-43
2023/02/19 11:04:26;;;;;;;6.40;1.30;;;;;;;4.93;100.00;102135.34;7390471;19;20455;-44
2023/02/19 11:06:57;;;;;;;5.13;0.90;;;;;;;4.97;100.00;102125.50;7396425;19;20430;-44
2023/02/19 11:09:29;;;;;;;4.33;0.70;;;;;;;4.99;100.00;102123.97;7388071;19;20446;-44
2023/02/19 11:11:59;;;;;;;4.67;1.20;;;;;;;5.11;100.00;102118.13;7394970;19;20460;-44
2023/02/19 11:14:32;;;;;;;14.57;3.80;;;;;;;5.12;100.00;102109.66;7387301;19;20434;-44
2023/02/19 11:17:03;;;;;;;10.33;3.10;;;;;;;5.14;100.00;102114.16;7396278;19;20420;-45
2023/02/19 11:19:38;;;;;;;14.43;2.80;;;;;;;5.33;100.00;102114.84;7391955;19;20435;-44
2023/02/19 11:22:21;;;;;;;7.60;2.23;;;;;;;5.27;100.00;102111.00;7392209;19;20431;-45
2023/02/19 11:24:52;;;;;;;4.10;1.30;;;;;;;5.19;100.00;102100.88;7390972;19;20426;-44
2023/02/19 11:27:27;;;;;;;2.00;0.80;;;;;;;5.25;100.00;102102.31;7395048;19;20404;-44
2023/02/19 11:30:24;;;;;;;4.47;0.80;;;;;;;5.31;100.00;102113.81;7390134;19;20450;-44
2023/02/19 11:32:53;;;;;;;6.53;1.30;;;;;;;5.35;100.00;102097.94;7394135;19;20436;-44
2023/02/19 11:35:24;;;;;;;5.67;1.03;;;;;;;5.40;100.00;102091.56;7391172;19;20987;-44
2023/02/19 11:37:59;;;;;;;12.00;4.40;;;;;;;5.51;100.00;102103.59;7395120;19;20404;-45
2023/02/19 11:40:39;;;;;;;7.23;2.10;;;;;;;5.46;100.00;102089.50;7390846;19;20443;-45
2023/02/19 11:43:18;;;;;;;3.37;0.63;;;;;;;5.39;100.00;102106.00;7391722;19;20455;-44
2023/02/19 11:45:53;;;;;;;6.90;1.10;;;;;;;5.46;100.00;102097.19;7393845;19;20800;-44
2023/02/19 11:48:41;;;;;;;4.13;0.90;;;;;;;5.64;100.00;102097.81;7391319;19;20401;-44
2023/02/19 11:51:20;;;;;;;14.50;2.50;;;;;;;5.65;100.00;102097.06;7394036;19;20742;-44
2023/02/19 11:53:56;;;;;;;16.70;2.63;;;;;;;5.73;100.00;102102.81;7385998;19;20419;-45
2023/02/19 11:56:32;;;;;;;4.80;1.17;;;;;;;5.76;100.00;102103.09;7393696;19;20408;-45
2023/02/19 11:59:03;;;;;;;4.43;1.10;;;;;;;5.71;100.00;102094.13;7390668;19;20443;-44
2023/02/19 12:01:56;;;;;;;13.43;1.97;;;;;;;5.68;100.00;102086.16;7392616;19;20899;-45
2023/02/19 12:04:46;;;;;;;4.03;1.30;;;;;;;5.73;100.00;102078.84;7390035;19;20971;-45